Hana — T2AX5 — position and weather

sailwx.info

Track history (hours):
 
Tides and Currents Weather Stations Pressure Air Temp Water Temp Dewpoint Dewpoint Depression Visibility Wind Speed Wind Dir Waves Ship Positions

Hana

Last reported at 2017-Oct-05 03:45 UTC. Time now 2017-Nov-22 01:45 UTC.
Position N 33°07' W 008°38'.
Warning: this ship's position is 47 days out of date.

Length 196 m; draft 6.9 m.

Type: Ship. MMSI: 572951210.

Date/timePositionNaut miles runAvg speedWind from/ knotsBaromVisibWave heightAir tempDewpointWater temp
2017-Oct-05 03:45N 33°07' W 008°38'0 0.0
2017-Oct-05 03:27N 33°07' W 008°38'0 0.0
2017-Oct-05 02:45N 33°07' W 008°38'  
2017-Oct-01 23:00N 33°07' W 008°38'0 0.0
2017-Oct-01 22:30N 33°07' W 008°38'  
2017-Sep-28 06:53N 33°13' W 008°38'0 0.0
2017-Sep-28 03:11N 33°13' W 008°38'0 0.0
2017-Sep-28 02:59N 33°13' W 008°38'0 0.0
2017-Sep-28 01:29N 33°13' W 008°38'0 0.0
2017-Sep-27 20:47N 33°13' W 008°38'0 0.1
2017-Sep-27 20:17N 33°13' W 008°38'0 0.0
2017-Sep-27 18:50N 33°13' W 008°38'0 0.1
2017-Sep-27 18:26N 33°13' W 008°38'0 0.0
2017-Sep-27 17:53N 33°13' W 008°38'158 3.1
2017-Sep-25 15:03N 35°18' W 006°41'11 7.5
2017-Sep-25 13:39N 35°22' W 006°29'49 5.8
2017-Sep-25 05:10N 35°57' W 005°47'8 8.0
2017-Sep-25 04:12N 35°57' W 005°38'2 8.6
2017-Sep-25 04:00N 35°58' W 005°36'  
Track history (hours):
 
Tides and Currents Weather Stations Pressure Air Temp Water Temp Dewpoint Dewpoint Depression Visibility Wind Speed Wind Dir Waves Ship Positions

Hana

Last reported at 2017-Oct-05 03:45 UTC. Time now 2017-Nov-22 01:45 UTC.
Position N 33°07' W 008°38'.
Warning: this ship's position is 47 days out of date.

Length 196 m; draft 6.9 m.

Type: Ship. MMSI: 572951210.

Date/timePositionNaut miles runAvg speedWind from/ knotsBaromVisibWave heightAir tempDewpointWater temp
2017-Oct-05 03:45N 33°07' W 008°38'0 0.0
2017-Oct-05 03:27N 33°07' W 008°38'0 0.0
2017-Oct-05 02:45N 33°07' W 008°38'  
2017-Oct-01 23:00N 33°07' W 008°38'0 0.0
2017-Oct-01 22:30N 33°07' W 008°38'  
2017-Sep-28 06:53N 33°13' W 008°38'0 0.0
2017-Sep-28 03:11N 33°13' W 008°38'0 0.0
2017-Sep-28 02:59N 33°13' W 008°38'0 0.0
2017-Sep-28 01:29N 33°13' W 008°38'0 0.0
2017-Sep-27 20:47N 33°13' W 008°38'0 0.1
2017-Sep-27 20:17N 33°13' W 008°38'0 0.0
2017-Sep-27 18:50N 33°13' W 008°38'0 0.1
2017-Sep-27 18:26N 33°13' W 008°38'0 0.0
2017-Sep-27 17:53N 33°13' W 008°38'158 3.1
2017-Sep-25 15:03N 35°18' W 006°41'11 7.5
2017-Sep-25 13:39N 35°22' W 006°29'49 5.8
2017-Sep-25 05:10N 35°57' W 005°47'8 8.0
2017-Sep-25 04:12N 35°57' W 005°38'2 8.6
2017-Sep-25 04:00N 35°58' W 005°36'  

Dump ship's entire track history